Flight Briefing for CPX713

Departure Arrival
Incheon International Airport (RKSI)
Click to view FAA NOTAMS
Tokyo-Narita International Airport (RJAA)
Click to view FAA NOTAMS
Departure Time Arrival Time
N/A N/A
Aircraft Distance
B767-300BDSF 680nm
Departure METAR Arrival METAR
RKSI 152200Z 34012KT 8000 SCT030 M05/M10 Q1024 NOSIG RJAA 152200Z 32003KT 280V350 9999 FEW015 BKN180 BKN/// 01/M02 Q1010 NOSIG RMK 1CU015 5AC180 A2983
Suggested Route
SEL1S SEL G597 KAE Y437 TENAS L512 GTC Y303 KAMOH Y301 SHELY Y30 MELON NORMA


View recent IFR Routes data
Notes



Charts and Procedures

Charts for RKSI
No chart available
Charts for RJAA
No chart available

Ventusky Weather